Violet, Louisiana
Current Conditions -  °F | °C
As of 7:55 AM on Friday 31 Oct 2014 (Local Time) from KNBG Reporting Station
Light Fog Light Fog  
Wind Chill: 52°   Ceiling: Unl
Heat Index: 52°   Visibility: 7mi
Dew Point: 49°   Wind: 0mph
Humidity: 89%   Direction: NA
Pressure: 30.05"   Gusts: NA
Location:  29.9°N, 89.9°W
Report Text: KNBG 311255Z 00000KT 7SM MIFG FEW010 11/09 A3005 RMK AO2 SLP176 FU FEW010 T01110094 $
Loading
Personal Weather Stations






























Interactive Weather Map
Tropical Storm Tracking
New forecast layout! Learn more

10-Day Weather Forecast

Advertisements
Track Severe Weather on mobile